Coronel Dorrego, Argentina
Current Conditions -  °F | °C
As of 8:00 PM on Sunday 21 Dec 2014 (Local Time) from SAZM Reporting Station
Scattered Clouds Scattered Clouds  
Wind Chill: 59°   Ceiling: Unl
Heat Index: 59°   Visibility: 6mi
Dew Point: 41°   Wind: 6mph
Humidity: 51%   Direction: 160°SSE
Pressure: 29.85"   Gusts: NA
Location:  38.75°S, 61.17°W
Report Text: SAZM 212300Z 16005KT 9999 SCT025 SCT08015/05 Q1011
Loading
Personal Weather Stations






























Interactive Weather Map New forecast layout! Learn more

10-Day Weather Forecast

Advertisements
Track Severe Weather on mobile